Time;durP1;ratioP1;P1;durP2;ratioP2;P2;SDS_P1;SDS_P2;PMS_P1;PMS_P2;Temp;Humidity;BMP_temperature;BMP_pressure;BME280_temperature;BME280_humidity;BME280_pressure;Samples;Min_cycle;Max_cycle;Signal;HPM_P1;HPM_P2
2023/07/06 04:30:27;;;;;;;4.23;1.97;;;14.00;75.40;;;;;;6049071;23;20028;31
2023/07/06 04:32:53;;;;;;;6.07;1.95;;;14.00;75.40;;;;;;4873059;29;20141;-73
2023/07/06 04:35:22;;;;;;;4.75;1.90;;;13.90;75.70;;;;;;4879397;29;20131;-73
2023/07/06 04:37:49;;;;;;;4.70;1.80;;;13.80;76.00;;;;;;4879347;29;20029;-73
2023/07/06 04:40:20;;;;;;;4.95;2.00;;;13.80;75.80;;;;;;4880220;29;20104;-73
2023/07/06 04:42:48;;;;;;;6.18;1.80;;;13.80;76.60;;;;;;4878979;29;20503;-73
2023/07/06 04:45:15;;;;;;;7.68;2.10;;;13.80;76.20;;;;;;4877881;29;20105;-75
2023/07/06 04:47:44;;;;;;;4.20;1.90;;;13.80;76.10;;;;;;4872805;29;20065;-76
2023/07/06 04:50:22;;;;;;;6.35;2.05;;;13.80;76.00;;;;;;4861253;29;20070;-77
2023/07/06 04:52:53;;;;;;;5.45;1.80;;;13.80;76.10;;;;;;4861279;29;20759;-79
2023/07/06 04:55:23;;;;;;;5.03;2.00;;;13.90;76.20;;;;;;4888104;29;20037;-80
2023/07/06 04:57:54;;;;;;;5.95;2.15;;;13.90;75.90;;;;;;4878683;29;20104;-78
2023/07/06 05:00:24;;;;;;;5.55;1.98;;;14.00;75.90;;;;;;4862504;29;20030;-79
2023/07/06 05:02:55;;;;;;;4.97;2.10;;;14.00;75.70;;;;;;4873612;29;20057;-80
2023/07/06 05:05:22;;;;;;;6.00;2.03;;;14.10;75.70;;;;;;4882444;29;20144;-79
2023/07/06 05:07:48;;;;;;;5.15;1.80;;;14.00;76.60;;;;;;4873537;29;20044;-79
2023/07/06 05:10:15;;;;;;;5.18;2.13;;;13.90;77.00;;;;;;4901373;29;20057;-79
2023/07/06 05:12:42;;;;;;;6.05;2.17;;;14.00;77.00;;;;;;4878998;29;20519;-79
2023/07/06 05:15:08;;;;;;;6.90;1.67;;;14.20;76.10;;;;;;4881848;29;20392;-79
2023/07/06 05:17:34;;;;;;;4.45;1.92;;;14.30;76.10;;;;;;4881101;29;20029;-81
2023/07/06 05:19:59;;;;;;;6.00;1.92;;;14.20;77.20;;;;;;4876644;29;20036;-76
2023/07/06 05:22:26;;;;;;;5.38;1.98;;;14.40;75.80;;;;;;4884437;29;20041;-82
2023/07/06 05:24:52;;;;;;;7.40;1.63;;;14.50;76.00;;;;;;4881228;29;20524;-77
2023/07/06 05:27:19;;;;;;;5.45;2.15;;;14.50;75.80;;;;;;4877941;29;20097;-78
2023/07/06 05:29:44;;;;;;;5.60;1.73;;;14.60;75.70;;;;;;4862045;29;20044;-77
2023/07/06 05:32:10;;;;;;;6.63;1.88;;;14.70;75.30;;;;;;4870462;29;20049;-77
2023/07/06 05:34:36;;;;;;;6.45;1.90;;;14.80;75.30;;;;;;4880183;29;20025;-78
2023/07/06 05:37:02;;;;;;;6.10;1.88;;;14.90;74.90;;;;;;4879893;29;20041;-78
2023/07/06 05:39:28;;;;;;;4.35;1.80;;;15.00;75.30;;;;;;4881075;29;20512;-77
2023/07/06 05:41:53;;;;;;;5.22;2.22;;;15.10;75.50;;;;;;4870740;29;20033;-77
2023/07/06 05:44:19;;;;;;;6.40;2.10;;;15.20;75.70;;;;;;4864102;29;20025;-78
2023/07/06 05:46:45;;;;;;;5.65;2.45;;;15.30;76.20;;;;;;4863835;29;20513;-77
2023/07/06 05:49:10;;;;;;;6.30;2.08;;;15.40;76.00;;;;;;4882400;29;20567;-78
2023/07/06 05:51:41;;;;;;;4.05;1.83;;;15.50;75.30;;;;;;4877270;29;20116;-82
2023/07/06 05:54:07;;;;;;;7.18;2.30;;;15.60;75.60;;;;;;4862255;29;20026;-78
2023/07/06 05:56:32;;;;;;;5.93;1.83;;;15.70;75.60;;;;;;4877949;29;20044;-78
2023/07/06 05:59:00;;;;;;;4.88;2.00;;;15.80;75.20;;;;;;4881247;29;20120;-78
2023/07/06 06:01:26;;;;;;;6.88;2.30;;;15.80;74.90;;;;;;4875863;29;20188;-78
2023/07/06 06:03:52;;;;;;;5.60;2.15;;;15.90;74.50;;;;;;4881817;29;20073;-78
2023/07/06 06:06:21;;;;;;;6.75;1.80;;;16.00;75.30;;;;;;4881255;29;20449;-78
2023/07/06 06:08:48;;;;;;;4.22;1.67;;;15.90;75.20;;;;;;4880542;29;20036;-78
2023/07/06 06:11:15;;;;;;;5.43;1.90;;;16.00;75.50;;;;;;4864859;29;20037;-77
2023/07/06 06:13:43;;;;;;;4.43;2.00;;;15.90;75.40;;;;;;4864909;29;20444;-78
2023/07/06 06:16:12;;;;;;;7.78;2.50;;;16.00;75.40;;;;;;4881894;29;20397;-78
2023/07/06 06:18:41;;;;;;;6.28;2.20;;;16.10;75.70;;;;;;4864181;29;20029;-78
2023/07/06 06:21:07;;;;;;;6.28;2.20;;;16.20;75.60;;;;;;4851435;29;20116;-78
2023/07/06 06:23:33;;;;;;;6.95;2.30;;;16.30;74.80;;;;;;4849300;29;20025;-78
2023/07/06 06:26:00;;;;;;;10.77;2.53;;;16.40;74.90;;;;;;4873025;29;20048;-78
2023/07/06 06:28:26;;;;;;;5.28;1.90;;;16.40;75.90;;;;;;4872295;29;20112;-78
2023/07/06 06:30:53;;;;;;;5.13;1.70;;;16.50;75.10;;;;;;4856717;29;20141;-78
2023/07/06 06:33:19;;;;;;;6.22;2.10;;;16.60;75.30;;;;;;4873414;29;20046;-78
2023/07/06 06:35:47;;;;;;;9.43;2.53;;;16.60;75.10;;;;;;4872120;29;20449;-78
2023/07/06 06:38:14;;;;;;;4.85;1.80;;;16.70;74.90;;;;;;4873435;29;20496;-78
2023/07/06 06:40:40;;;;;;;6.43;2.00;;;16.80;75.00;;;;;;4857463;29;20032;-78
2023/07/06 06:43:06;;;;;;;5.22;1.80;;;16.80;74.70;;;;;;4872296;29;20013;-78
2023/07/06 06:45:32;;;;;;;4.05;2.00;;;16.80;74.60;;;;;;4875009;29;20080;-78
2023/07/06 06:47:58;;;;;;;8.77;1.80;;;16.80;74.80;;;;;;4856802;29;20026;-77
2023/07/06 06:50:24;;;;;;;4.68;1.77;;;16.80;74.40;;;;;;4856489;29;20404;-78
2023/07/06 06:52:50;;;;;;;5.05;1.58;;;16.70;74.40;;;;;;4871834;29;20034;-78
2023/07/06 06:55:16;;;;;;;6.30;1.40;;;16.70;75.10;;;;;;4856785;29;20181;-78
2023/07/06 06:57:43;;;;;;;6.53;2.25;;;16.60;75.20;;;;;;4854994;29;20492;-78
2023/07/06 07:00:09;;;;;;;5.05;1.20;;;16.70;75.20;;;;;;4872108;29;20026;-79
2023/07/06 07:02:38;;;;;;;6.65;1.67;;;16.70;75.20;;;;;;4872753;29;20512;-77
2023/07/06 07:05:05;;;;;;;7.95;1.60;;;16.70;74.60;;;;;;4859797;29;20032;-78
2023/07/06 07:07:31;;;;;;;4.00;1.60;;;16.80;75.00;;;;;;4870526;29;20032;-78
2023/07/06 07:09:57;;;;;;;3.13;1.00;;;16.80;74.40;;;;;;4870247;29;20149;-78
2023/07/06 07:12:22;;;;;;;5.00;2.05;;;16.80;73.20;;;;;;4870916;29;20029;-78
2023/07/06 07:14:48;;;;;;;4.75;1.60;;;16.90;73.50;;;;;;4872225;29;20026;-78
2023/07/06 07:17:14;;;;;;;7.60;1.58;;;17.10;73.30;;;;;;4872528;29;20488;-78
2023/07/06 07:19:41;;;;;;;7.32;1.65;;;17.20;73.00;;;;;;4874105;29;20032;-78
2023/07/06 07:22:06;;;;;;;5.28;1.10;;;17.30;72.30;;;;;;4871694;29;20025;-77
2023/07/06 07:24:33;;;;;;;6.28;2.03;;;17.30;71.90;;;;;;4873096;29;20036;-77
2023/07/06 07:27:00;;;;;;;6.50;1.65;;;17.50;71.50;;;;;;4853086;29;20037;-78
2023/07/06 07:29:26;;;;;;;6.10;1.38;;;17.50;70.70;;;;;;4854521;29;20412;-80
2023/07/06 07:31:52;;;;;;;3.67;1.30;;;17.70;70.30;;;;;;4887345;29;20049;-79
2023/07/06 07:34:19;;;;;;;5.90;2.22;;;17.80;69.00;;;;;;4890942;29;20035;-80
2023/07/06 07:36:45;;;;;;;4.78;1.45;;;18.00;67.10;;;;;;4887340;29;20108;-80
2023/07/06 07:39:11;;;;;;;5.20;1.45;;;18.60;64.80;;;;;;4886601;29;20060;-80
2023/07/06 07:41:37;;;;;;;3.33;1.50;;;19.30;63.70;;;;;;4891556;29;20400;-80
2023/07/06 07:44:04;;;;;;;4.20;1.40;;;20.00;62.90;;;;;;4892131;29;20594;-78
2023/07/06 07:46:30;;;;;;;4.75;1.55;;;21.20;58.10;;;;;;4879920;29;20511;-84
2023/07/06 07:48:56;;;;;;;3.65;1.67;;;22.60;55.00;;;;;;4860155;29;20033;-83
2023/07/06 07:51:30;;;;;;;4.35;1.20;;;24.00;50.00;;;;;;4873964;29;20022;-85
2023/07/06 07:53:56;;;;;;;3.15;1.48;;;26.10;45.90;;;;;;4878085;29;20037;-83
2023/07/06 07:56:24;;;;;;;3.17;1.38;;;28.60;39.10;;;;;;4859036;29;20594;-84
2023/07/06 07:58:50;;;;;;;3.72;1.40;;;30.60;37.10;;;;;;4860046;29;20040;-85
2023/07/06 08:01:25;;;;;;;3.78;1.30;;;31.90;34.80;;;;;;4874922;29;20096;-85
2023/07/06 08:03:54;;;;;;;3.42;1.63;;;32.70;32.30;;;;;;4863315;29;20029;-82
2023/07/06 08:06:23;;;;;;;4.68;1.50;;;33.40;31.20;;;;;;4884188;29;20097;-87
2023/07/06 08:08:50;;;;;;;4.20;1.30;;;33.80;30.60;;;;;;4867310;29;20027;-84
2023/07/06 08:11:22;;;;;;;3.03;1.25;;;31.40;31.10;;;;;;4880719;29;20071;-87
2023/07/06 08:13:53;;;;;;;3.60;1.65;;;30.70;33.30;;;;;;4867641;29;20114;-88
2023/07/06 08:16:20;;;;;;;3.33;1.70;;;31.90;32.30;;;;;;4865522;29;20105;-88
2023/07/06 08:18:48;;;;;;;4.30;1.67;;;33.30;31.10;;;;;;4884193;29;20044;-87
2023/07/06 08:21:15;;;;;;;3.72;1.88;;;34.10;30.00;;;;;;4884446;29;20032;-87
2023/07/06 08:23:48;;;;;;;4.10;2.17;;;34.90;28.60;;;;;;4866261;29;20040;-86
2023/07/06 08:26:15;;;;;;;3.63;1.80;;;35.30;28.00;;;;;;4882209;29;20037;-88
2023/07/06 08:28:41;;;;;;;5.95;1.63;;;35.80;27.70;;;;;;4883592;29;20032;-86
2023/07/06 08:31:14;;;;;;;3.83;1.80;;;35.40;24.80;;;;;;4882133;29;20124;-85
2023/07/06 08:33:40;;;;;;;3.97;1.77;;;35.70;27.30;;;;;;4893356;29;20032;-86
2023/07/06 08:36:07;;;;;;;3.55;1.80;;;35.80;26.90;;;;;;4868965;29;20036;-86
2023/07/06 08:38:33;;;;;;;5.63;1.73;;;36.00;25.90;;;;;;4876837;29;20044;-82
2023/07/06 08:41:09;;;;;;;2.60;1.40;;;36.30;25.40;;;;;;4902249;29;20025;-79
2023/07/06 08:43:36;;;;;;;5.03;1.60;;;35.30;26.20;;;;;;4871792;29;20417;-80
2023/07/06 08:46:04;;;;;;;3.03;1.30;;;33.80;28.30;;;;;;4888799;29;20056;-80
2023/07/06 08:48:33;;;;;;;2.67;1.50;;;33.00;28.70;;;;;;4889895;29;20036;-81
2023/07/06 08:51:13;;;;;;;2.75;1.50;;;32.80;26.70;;;;;;4872313;29;20033;-81
2023/07/06 08:53:48;;;;;;;3.95;1.58;;;33.80;27.50;;;;;;4881254;29;20064;-81
2023/07/06 08:56:16;;;;;;;2.30;1.30;;;33.40;27.00;;;;;;4880873;29;20032;-79
2023/07/06 08:58:42;;;;;;;3.47;1.45;;;32.80;29.00;;;;;;4865996;29;20029;-80
2023/07/06 09:01:22;;;;;;;4.57;1.73;;;33.50;28.30;;;;;;4884602;29;20039;-80
2023/07/06 09:03:51;;;;;;;4.40;1.60;;;33.90;27.20;;;;;;4873498;29;20031;-80
2023/07/06 09:06:20;;;;;;;3.00;1.67;;;34.40;28.30;;;;;;4889232;29;20059;-77
2023/07/06 09:08:50;;;;;;;2.88;1.67;;;34.20;28.20;;;;;;4875242;29;20060;-83
2023/07/06 09:11:17;;;;;;;3.50;1.83;;;34.90;27.40;;;;;;4889049;29;20093;-81
2023/07/06 09:13:51;;;;;;;4.68;1.92;;;35.30;27.00;;;;;;4891628;29;20057;-80
2023/07/06 09:16:20;;;;;;;3.45;1.95;;;35.80;25.60;;;;;;4867719;29;20488;-82
2023/07/06 09:18:52;;;;;;;4.43;2.00;;;36.00;26.20;;;;;;4881888;29;20053;-82
2023/07/06 09:21:22;;;;;;;3.28;2.00;;;36.20;25.60;;;;;;4881024;29;20032;-82
2023/07/06 09:23:48;;;;;;;5.03;2.35;;;36.00;24.50;;;;;;4891598;29;20025;-82
2023/07/06 09:26:23;;;;;;;4.43;2.97;;;35.30;25.30;;;;;;4894810;29;20042;-81
2023/07/06 09:28:49;;;;;;;4.75;2.53;;;35.30;25.30;;;;;;4886200;29;20500;-82
2023/07/06 09:31:20;;;;;;;3.97;2.63;;;34.90;25.80;;;;;;4886569;29;20075;-81
2023/07/06 09:33:48;;;;;;;6.63;3.00;;;35.30;26.10;;;;;;4886056;29;20468;-81
2023/07/06 09:36:23;;;;;;;5.72;2.75;;;35.20;25.90;;;;;;4896951;29;20092;-82
2023/07/06 09:38:50;;;;;;;4.28;2.85;;;35.80;26.10;;;;;;4892542;29;20577;-83
2023/07/06 09:41:23;;;;;;;5.45;3.50;;;36.20;25.80;;;;;;4881032;29;20025;-82
2023/07/06 09:43:59;;;;;;;6.95;2.42;;;36.30;25.50;;;;;;4883767;29;20025;-81
2023/07/06 09:46:33;;;;;;;5.05;3.10;;;36.40;26.00;;;;;;4884667;29;20047;-82
2023/07/06 09:48:59;;;;;;;4.40;2.35;;;36.30;24.20;;;;;;4863917;29;20040;-82
2023/07/06 09:51:32;;;;;;;3.75;2.72;;;33.80;26.70;;;;;;4862646;29;20029;-79
2023/07/06 09:54:06;;;;;;;3.83;2.08;;;34.00;27.60;;;;;;4877256;29;20025;-83
2023/07/06 09:56:32;;;;;;;4.88;3.13;;;33.70;27.70;;;;;;4897763;29;20036;-86
2023/07/06 09:59:00;;;;;;;4.97;2.45;;;33.90;27.10;;;;;;4862522;29;20028;-88
2023/07/06 10:01:53;;;;;;;4.03;2.10;;;34.80;28.70;;;;;;4862901;29;20033;-78
2023/07/06 10:04:39;;;;;;;5.38;2.45;;;35.00;27.20;;;;;;4875224;29;20447;-76
2023/07/06 10:07:20;;;;;;;5.47;2.95;;;35.70;26.20;;;;;;4880142;29;20037;-77
2023/07/06 10:10:03;;;;;;;3.80;2.50;;;35.80;26.60;;;;;;4862993;29;20927;-77
2023/07/06 10:12:58;;;;;;;5.40;2.40;;;35.50;26.00;;;;;;4878520;29;20065;-78
2023/07/06 10:15:54;;;;;;;5.20;2.50;;;35.60;25.80;;;;;;4863880;29;20030;-80
2023/07/06 10:18:51;;;;;;;3.28;1.92;;;35.30;24.70;;;;;;4872346;29;20033;-83
2023/07/06 10:21:26;;;;;;;4.30;1.88;;;34.60;26.30;;;;;;4868976;29;20043;-82
2023/07/06 10:24:28;;;;;;;3.33;1.70;;;33.90;26.70;;;;;;4878494;29;20025;-81
2023/07/06 10:26:59;;;;;;;3.45;2.00;;;32.90;27.30;;;;;;4877556;29;20029;-81
2023/07/06 10:29:41;;;;;;;3.65;1.90;;;32.40;28.30;;;;;;4874395;29;20047;-79
2023/07/06 10:32:38;;;;;;;4.35;2.10;;;32.60;27.30;;;;;;4878025;29;20408;-80
2023/07/06 10:35:21;;;;;;;5.05;2.30;;;33.00;26.40;;;;;;4863801;29;20045;-81
2023/07/06 10:37:47;;;;;;;3.80;1.70;;;32.90;28.60;;;;;;4879242;29;20029;-79
2023/07/06 10:40:25;;;;;;;5.13;1.98;;;32.40;28.00;;;;;;4881561;29;20744;-90
2023/07/06 10:43:13;;;;;;;3.70;1.80;;;32.00;29.90;;;;;;4883999;29;20024;-94
2023/07/06 10:45:54;;;;;;;3.63;1.50;;;31.70;30.30;;;;;;4865959;29;20033;-86
2023/07/06 10:48:30;;;;;;;5.30;1.70;;;31.20;31.50;;;;;;4861177;29;20178;-87
2023/07/06 10:51:22;;;;;;;4.05;1.70;;;30.30;30.80;;;;;;4861617;29;20048;-88
2023/07/06 10:54:29;;;;;;;3.95;1.50;;;29.40;32.20;;;;;;4867217;29;20065;-90
2023/07/06 10:57:10;;;;;;;6.68;2.00;;;29.30;33.40;;;;;;4842860;29;20127;-85
2023/07/06 10:59:51;;;;;;;4.30;1.55;;;29.20;34.00;;;;;;4826912;29;20524;-87
2023/07/06 11:02:36;;;;;;;3.63;1.70;;;29.10;33.20;;;;;;4849747;29;20129;-85
2023/07/06 11:05:31;;;;;;;4.57;1.70;;;28.80;35.20;;;;;;4863918;29;20041;-90
2023/07/06 11:08:00;;;;;;;3.90;1.60;;;28.40;33.80;;;;;;4864492;29;20039;-91
2023/07/06 11:10:33;;;;;;;5.28;1.75;;;28.20;35.90;;;;;;4860361;29;20028;-92
2023/07/06 11:13:02;;;;;;;5.38;1.83;;;28.30;35.60;;;;;;4883627;29;20117;-92
2023/07/06 11:15:41;;;;;;;4.43;1.58;;;28.10;35.80;;;;;;4898608;29;20039;-91
2023/07/06 11:18:19;;;;;;;5.28;1.60;;;27.70;36.20;;;;;;4871596;29;20041;-93
2023/07/06 11:21:09;;;;;;;4.88;1.42;;;27.60;34.40;;;;;;4872487;29;20037;-94
2023/07/06 11:24:06;;;;;;;5.57;1.70;;;27.70;37.80;;;;;;4869963;29;20021;-91
2023/07/06 11:26:55;;;;;;;4.05;1.60;;;27.80;36.80;;;;;;4871342;29;20094;-90
2023/07/06 11:29:30;;;;;;;3.70;1.58;;;27.70;37.30;;;;;;4867022;29;20029;-86
2023/07/06 11:32:14;;;;;;;4.07;1.60;;;27.50;34.30;;;;;;4863219;29;20053;-87
2023/07/06 11:35:09;;;;;;;5.05;1.75;;;27.60;34.80;;;;;;4880130;29;20067;-83
2023/07/06 11:37:46;;;;;;;4.80;1.88;;;27.50;33.00;;;;;;4897985;29;20033;-87
2023/07/06 11:40:43;;;;;;;4.72;1.75;;;27.20;35.20;;;;;;4885614;29;20028;-81
2023/07/06 11:43:18;;;;;;;7.95;1.52;;;27.40;36.30;;;;;;4899316;29;20029;-89
2023/07/06 11:46:17;;;;;;;4.82;1.90;;;27.60;36.10;;;;;;4881072;29;20040;-84
2023/07/06 11:48:52;;;;;;;4.65;1.70;;;27.60;36.40;;;;;;4878616;29;20041;-86
2023/07/06 11:51:21;;;;;;;4.40;1.70;;;27.60;35.20;;;;;;4883972;29;20029;-87
2023/07/06 11:56:22;;;;;;;4.15;1.85;;;27.20;36.60;;;;;;4881155;29;20031;-86
2023/07/06 11:58:57;;;;;;;4.22;2.17;;;27.30;37.10;;;;;;4882331;29;20485;-89
2023/07/06 12:01:33;;;;;;;4.90;1.90;;;27.40;38.40;;;;;;4868443;29;20029;-92
2023/07/06 12:04:04;;;;;;;3.55;1.60;;;27.60;37.20;;;;;;4879853;29;20031;-88
2023/07/06 12:06:33;;;;;;;4.05;1.70;;;27.40;36.80;;;;;;4867809;29;20025;-89
2023/07/06 12:09:06;;;;;;;5.82;1.85;;;27.50;37.10;;;;;;4868018;29;20049;-84
2023/07/06 12:11:33;;;;;;;4.82;1.83;;;27.30;36.60;;;;;;4895814;29;20033;-85
2023/07/06 12:14:00;;;;;;;5.68;2.00;;;27.20;36.50;;;;;;4867807;29;20531;-79
2023/07/06 12:16:39;;;;;;;3.80;1.67;;;27.50;36.90;;;;;;4867201;29;20416;-81
2023/07/06 12:19:12;;;;;;;4.93;1.80;;;27.70;37.30;;;;;;4883597;29;20025;-85
2023/07/06 12:21:53;;;;;;;5.80;2.10;;;27.30;36.50;;;;;;4881622;29;20045;-85
2023/07/06 12:24:22;;;;;;;6.22;2.13;;;27.20;36.00;;;;;;4882352;29;20067;-86
2023/07/06 12:26:51;;;;;;;3.67;1.70;;;27.00;35.10;;;;;;4866590;29;20033;-86
2023/07/06 12:29:19;;;;;;;4.78;1.80;;;27.00;34.70;;;;;;4863602;29;20066;-85
2023/07/06 12:31:45;;;;;;;5.47;1.90;;;26.90;35.20;;;;;;4871883;29;20057;-86
2023/07/06 12:34:17;;;;;;;3.90;2.08;;;27.00;37.20;;;;;;4883386;29;20036;-91
2023/07/06 12:36:44;;;;;;;4.07;2.03;;;27.30;37.90;;;;;;4883882;29;20244;-90
2023/07/06 12:39:15;;;;;;;5.30;2.10;;;27.30;34.80;;;;;;4883316;29;20029;-90
2023/07/06 12:41:41;;;;;;;4.15;1.90;;;27.30;33.50;;;;;;4883274;29;20032;-85
2023/07/06 12:44:17;;;;;;;5.80;2.03;;;27.20;35.70;;;;;;4870485;29;20091;-83
2023/07/06 12:46:51;;;;;;;5.05;1.95;;;27.20;35.10;;;;;;4883456;29;20021;-83
2023/07/06 12:49:21;;;;;;;4.10;1.95;;;27.30;37.10;;;;;;4882558;29;20488;-77
2023/07/06 12:51:58;;;;;;;5.25;2.00;;;27.30;35.70;;;;;;4865159;29;20092;-84
2023/07/06 12:54:25;;;;;;;3.80;1.80;;;27.40;35.00;;;;;;4882589;29;20033;-84
2023/07/06 12:57:22;;;;;;;3.63;2.10;;;27.30;34.80;;;;;;4882732;29;20116;-78
2023/07/06 12:59:57;;;;;;;4.28;1.77;;;27.40;36.50;;;;;;4879124;29;20501;-79
2023/07/06 13:02:29;;;;;;;5.72;1.95;;;27.40;36.10;;;;;;4864692;29;20029;-85
2023/07/06 13:04:55;;;;;;;4.18;1.90;;;27.30;35.50;;;;;;4881964;29;20025;-83
2023/07/06 13:07:26;;;;;;;5.05;1.90;;;27.50;35.40;;;;;;4879084;29;20085;-85
2023/07/06 13:09:52;;;;;;;3.80;1.70;;;27.50;35.90;;;;;;4854827;29;20041;-85
2023/07/06 13:12:24;;;;;;;4.95;1.80;;;27.60;33.70;;;;;;4869740;29;20116;-85
2023/07/06 13:14:50;;;;;;;5.30;1.75;;;27.70;35.00;;;;;;4881019;29;20092;-84
2023/07/06 13:17:23;;;;;;;4.40;1.83;;;27.80;35.90;;;;;;4880000;29;20069;-86
2023/07/06 13:19:49;;;;;;;;;;;27.80;34.80;;;;;;4862312;29;20033;-85
2023/07/06 13:22:15;;;;;;;4.80;1.60;;;27.80;35.30;;;;;;4884246;29;20281;-86
2023/07/06 13:24:41;;;;;;;4.03;1.58;;;28.10;35.00;;;;;;4884476;29;20056;-82
2023/07/06 13:27:20;;;;;;;4.63;2.00;;;28.20;34.50;;;;;;4879906;29;20550;-85
2023/07/06 13:29:50;;;;;;;4.35;1.77;;;28.30;34.60;;;;;;4865183;29;20040;-85
2023/07/06 13:32:17;;;;;;;5.05;2.03;;;28.40;36.50;;;;;;4876378;29;20049;-86
2023/07/06 13:34:44;;;;;;;4.18;1.75;;;28.40;34.20;;;;;;4865902;29;20045;-85
2023/07/06 13:37:23;;;;;;;5.15;1.95;;;28.50;33.60;;;;;;4864398;29;20029;-85
2023/07/06 13:39:49;;;;;;;4.60;2.13;;;28.00;33.60;;;;;;4881106;29;20411;-85
2023/07/06 13:42:18;;;;;;;4.70;1.88;;;27.80;34.00;;;;;;4881186;29;20032;-86
2023/07/06 13:44:43;;;;;;;3.38;1.80;;;27.80;34.80;;;;;;4863377;29;20037;-86
2023/07/06 13:47:12;;;;;;;4.93;1.70;;;27.80;33.40;;;;;;4863965;29;20045;-87
2023/07/06 13:49:40;;;;;;;4.97;2.00;;;27.90;36.30;;;;;;4861829;29;20064;-86
2023/07/06 13:52:07;;;;;;;6.40;2.20;;;28.00;34.20;;;;;;4862356;29;20033;-85
2023/07/06 13:54:33;;;;;;;4.80;1.80;;;28.10;34.40;;;;;;4883091;29;20037;-86
2023/07/06 13:56:59;;;;;;;4.10;1.90;;;28.00;34.10;;;;;;4865828;29;20124;-86
2023/07/06 13:59:24;;;;;;;4.20;2.10;;;27.90;35.80;;;;;;4881845;29;20064;-86
2023/07/06 14:01:50;;;;;;;5.18;1.83;;;27.90;34.10;;;;;;4881743;29;20492;-85
2023/07/06 14:04:18;;;;;;;4.30;2.03;;;28.00;34.70;;;;;;4865010;29;20550;-85
2023/07/06 14:06:44;;;;;;;5.55;2.00;;;27.90;34.50;;;;;;4882361;29;20056;-85
2023/07/06 14:09:11;;;;;;;4.30;2.15;;;27.90;33.50;;;;;;4875686;29;20176;-88
2023/07/06 14:11:39;;;;;;;4.45;2.05;;;27.90;34.30;;;;;;4873216;29;20029;-79
2023/07/06 14:14:04;;;;;;;3.75;1.65;;;27.90;34.30;;;;;;4858051;29;20035;-85
2023/07/06 14:16:31;;;;;;;5.18;2.58;;;28.00;35.20;;;;;;4880046;29;20029;-83
2023/07/06 14:18:57;;;;;;;3.80;1.92;;;27.80;34.10;;;;;;4877174;29;20037;-83
2023/07/06 14:21:23;;;;;;;5.85;2.00;;;27.80;34.20;;;;;;4865100;29;20520;-84
2023/07/06 14:23:51;;;;;;;5.60;1.90;;;27.60;34.20;;;;;;4863712;29;20033;-82
2023/07/06 14:26:17;;;;;;;3.97;1.92;;;27.60;33.80;;;;;;4881461;29;20041;-85
2023/07/06 14:28:49;;;;;;;5.07;2.05;;;27.60;33.10;;;;;;4864641;29;20453;-85
2023/07/06 14:31:17;;;;;;;3.47;1.70;;;27.70;33.70;;;;;;4878624;29;20524;-84
2023/07/06 14:33:43;;;;;;;4.43;1.50;;;27.70;34.30;;;;;;4876905;29;20037;-85
2023/07/06 14:36:08;;;;;;;5.13;2.05;;;27.70;33.40;;;;;;4862173;29;20040;-88
2023/07/06 14:38:34;;;;;;;5.95;2.00;;;27.70;34.00;;;;;;4880896;29;20489;-85
2023/07/06 14:41:01;;;;;;;3.75;1.73;;;27.70;33.70;;;;;;4879747;29;20104;-86
2023/07/06 14:43:28;;;;;;;3.97;1.88;;;27.80;33.50;;;;;;4863393;29;20039;-86
2023/07/06 14:45:54;;;;;;;3.78;1.70;;;27.80;31.90;;;;;;4890768;29;20028;-85
2023/07/06 14:48:20;;;;;;;5.65;2.22;;;27.60;31.40;;;;;;4884031;29;20037;-84
2023/07/06 14:50:46;;;;;;;4.53;1.67;;;27.60;33.40;;;;;;4885322;29;20500;-84
2023/07/06 14:53:11;;;;;;;5.05;1.95;;;27.50;33.10;;;;;;4868601;29;20464;-88
2023/07/06 14:55:37;;;;;;;4.15;1.80;;;27.50;33.00;;;;;;4867196;29;20032;-85
2023/07/06 14:58:04;;;;;;;4.18;1.70;;;27.60;32.80;;;;;;4885408;29;20432;-85
2023/07/06 15:00:31;;;;;;;5.03;1.63;;;27.60;32.30;;;;;;4885196;29;20021;-83
2023/07/06 15:02:57;;;;;;;4.82;1.98;;;27.50;31.60;;;;;;4867929;29;20036;-84
2023/07/06 15:05:22;;;;;;;4.07;1.60;;;27.60;33.50;;;;;;4872023;29;20029;-87
2023/07/06 15:07:48;;;;;;;4.72;1.80;;;27.70;32.80;;;;;;4864234;29;20041;-84
2023/07/06 15:10:14;;;;;;;4.28;1.77;;;27.80;31.30;;;;;;4882524;29;20029;-83
2023/07/06 15:12:42;;;;;;;6.35;1.55;;;27.70;34.30;;;;;;4884842;29;20104;-82
2023/07/06 15:15:09;;;;;;;3.53;1.92;;;27.80;33.30;;;;;;4882370;29;20025;-83
2023/07/06 15:17:35;;;;;;;5.30;2.03;;;27.70;32.80;;;;;;4884400;29;20033;-84
2023/07/06 15:20:00;;;;;;;4.25;1.77;;;27.60;33.10;;;;;;4867888;29;20073;-83
2023/07/06 15:22:26;;;;;;;3.58;1.65;;;27.60;31.90;;;;;;4881030;29;20040;-84
2023/07/06 15:24:52;;;;;;;3.45;1.48;;;27.60;31.40;;;;;;4879865;29;20373;-82
2023/07/06 15:27:18;;;;;;;5.32;1.60;;;27.50;32.80;;;;;;4865970;29;20080;-83
2023/07/06 15:29:43;;;;;;;5.53;2.40;;;27.60;30.70;;;;;;4876278;29;20056;-85
2023/07/06 15:32:09;;;;;;;4.40;1.77;;;27.60;31.20;;;;;;4883864;29;20057;-83
2023/07/06 15:34:34;;;;;;;4.35;1.60;;;27.50;30.70;;;;;;4867249;29;20033;-84
2023/07/06 15:37:00;;;;;;;5.07;1.80;;;27.40;30.70;;;;;;4879617;29;20075;-84
2023/07/06 15:39:26;;;;;;;2.92;1.50;;;27.50;30.20;;;;;;4883453;29;20486;-85
2023/07/06 15:41:54;;;;;;;5.35;2.00;;;27.60;30.70;;;;;;4867633;29;20025;-86
2023/07/06 15:44:21;;;;;;;4.93;1.70;;;27.60;29.10;;;;;;4897964;29;20033;-87
2023/07/06 15:46:47;;;;;;;4.53;1.80;;;27.40;30.30;;;;;;4866398;29;20047;-85
2023/07/06 15:49:13;;;;;;;6.63;1.80;;;27.40;30.20;;;;;;4868068;29;20057;-84
2023/07/06 15:51:39;;;;;;;3.63;1.75;;;27.40;30.00;;;;;;4881614;29;20488;-86
2023/07/06 15:54:10;;;;;;;3.80;1.73;;;27.40;30.60;;;;;;4896114;29;20036;-86
2023/07/06 15:56:35;;;;;;;5.10;2.00;;;27.40;29.90;;;;;;4884524;29;20043;-87
2023/07/06 15:59:08;;;;;;;4.63;1.85;;;27.40;29.00;;;;;;4884966;29;20626;-90
2023/07/06 16:01:35;;;;;;;5.35;1.98;;;27.40;29.70;;;;;;4865293;29;20033;-89
2023/07/06 16:04:01;;;;;;;7.00;1.85;;;27.40;30.60;;;;;;4875507;29;20089;-88
2023/07/06 16:06:31;;;;;;;6.32;2.17;;;27.40;29.60;;;;;;4865813;29;20038;-81
2023/07/06 16:08:57;;;;;;;4.47;2.13;;;27.50;30.60;;;;;;4868368;29;20584;-91
2023/07/06 16:11:33;;;;;;;3.72;1.60;;;27.40;30.40;;;;;;4868919;29;20033;-91
2023/07/06 16:13:58;;;;;;;4.50;2.10;;;27.40;31.40;;;;;;4868687;29;20040;-91
2023/07/06 16:16:24;;;;;;;4.50;1.77;;;27.30;31.70;;;;;;4865746;29;20055;-90
2023/07/06 16:18:50;;;;;;;4.65;2.08;;;27.30;31.40;;;;;;4865231;29;20033;-91
2023/07/06 16:21:17;;;;;;;4.13;2.00;;;27.20;31.50;;;;;;4865925;29;20557;-91
2023/07/06 16:23:44;;;;;;;7.00;1.90;;;27.10;32.10;;;;;;4865911;29;20045;-89
2023/07/06 16:26:14;;;;;;;5.13;2.22;;;27.00;31.70;;;;;;4850421;29;20033;-89
2023/07/06 16:28:42;;;;;;;5.18;2.10;;;27.00;32.10;;;;;;4850220;29;20029;-90
2023/07/06 16:31:09;;;;;;;4.57;1.77;;;26.90;31.10;;;;;;4865618;29;20049;-91
2023/07/06 16:33:36;;;;;;;4.60;2.17;;;27.00;31.90;;;;;;4861849;29;20403;-90
2023/07/06 16:36:02;;;;;;;5.50;2.10;;;27.00;30.80;;;;;;4868977;29;20120;-90
2023/07/06 16:38:28;;;;;;;6.88;2.10;;;27.00;31.30;;;;;;4868466;29;20033;-91
2023/07/06 16:40:54;;;;;;;3.92;2.00;;;27.10;31.70;;;;;;4877690;29;20037;-90
2023/07/06 16:43:20;;;;;;;3.95;2.20;;;27.10;32.30;;;;;;4849872;29;20442;-92
2023/07/06 16:45:47;;;;;;;5.03;2.30;;;27.00;32.00;;;;;;4859939;29;20040;-90
2023/07/06 16:48:14;;;;;;;5.00;2.08;;;27.00;31.50;;;;;;4883061;29;20033;-87
2023/07/06 16:50:40;;;;;;;8.48;2.20;;;27.00;32.20;;;;;;4882579;29;20092;-86
2023/07/06 16:53:05;;;;;;;4.88;2.10;;;27.00;32.90;;;;;;4883149;29;20086;-86
2023/07/06 16:55:31;;;;;;;4.30;2.22;;;26.90;33.00;;;;;;4863520;29;20071;-83
2023/07/06 16:57:57;;;;;;;5.13;2.55;;;26.90;32.80;;;;;;4858739;29;20403;-81
2023/07/06 17:00:23;;;;;;;6.43;2.13;;;26.90;32.60;;;;;;4875392;29;21318;-80
2023/07/06 17:02:49;;;;;;;5.72;2.33;;;26.80;32.80;;;;;;4878214;29;20105;-85
2023/07/06 17:05:17;;;;;;;5.78;2.45;;;26.80;32.80;;;;;;4883764;29;20029;-84
2023/07/06 17:07:42;;;;;;;6.05;2.22;;;26.80;32.40;;;;;;4883283;29;20049;-81
2023/07/06 17:10:10;;;;;;;4.68;2.40;;;26.80;32.70;;;;;;4870363;29;20033;-80
2023/07/06 17:12:38;;;;;;;4.97;2.20;;;26.80;33.40;;;;;;4870384;29;20039;-83
2023/07/06 17:15:04;;;;;;;6.15;2.60;;;26.80;32.30;;;;;;4867420;29;20033;-79
2023/07/06 17:17:30;;;;;;;5.80;2.20;;;26.80;32.80;;;;;;4864571;29;20040;-79
2023/07/06 17:19:56;;;;;;;5.07;2.80;;;26.70;32.30;;;;;;4881431;29;20037;-80
2023/07/06 17:22:22;;;;;;;9.35;4.45;;;26.70;32.60;;;;;;4894409;29;20029;-77
2023/07/06 17:24:47;;;;;;;8.23;3.85;;;26.70;32.80;;;;;;4872056;29;20492;-81
2023/07/06 17:27:14;;;;;;;4.95;2.72;;;26.70;32.80;;;;;;4881699;29;20062;-81
2023/07/06 17:29:40;;;;;;;6.45;2.38;;;26.70;32.30;;;;;;4883067;29;20025;-83
2023/07/06 17:32:06;;;;;;;5.65;2.50;;;26.60;32.60;;;;;;4876946;29;20053;-84
2023/07/06 17:34:31;;;;;;;4.95;2.50;;;26.50;32.80;;;;;;4877298;29;20033;-82